sensor_id;sensor_type;location;lat;lon;timestamp;temperature;humidity
35920;DHT22;36160;53.370;-6.196;2023-03-11T00:00:10;1.80;99.90
35920;DHT22;36160;53.370;-6.196;2023-03-11T00:02:41;1.90;99.90
35920;DHT22;36160;53.370;-6.196;2023-03-11T00:05:08;1.90;99.90
35920;DHT22;36160;53.370;-6.196;2023-03-11T00:07:34;2.00;99.90
35920;DHT22;36160;53.370;-6.196;2023-03-11T00:10:02;2.10;99.90
35920;DHT22;36160;53.370;-6.196;2023-03-11T00:12:28;2.10;99.90
35920;DHT22;36160;53.370;-6.196;2023-03-11T00:14:53;2.20;99.90
35920;DHT22;36160;53.370;-6.196;2023-03-11T00:17:19;2.30;99.90
35920;DHT22;36160;53.370;-6.196;2023-03-11T00:19:45;2.30;99.90
35920;DHT22;36160;53.370;-6.196;2023-03-11T00:22:10;2.40;99.90
35920;DHT22;36160;53.370;-6.196;2023-03-11T00:24:36;2.40;99.90
35920;DHT22;36160;53.370;-6.196;2023-03-11T00:27:02;2.50;99.90
35920;DHT22;36160;53.370;-6.196;2023-03-11T00:29:28;2.40;99.90
35920;DHT22;36160;53.370;-6.196;2023-03-11T00:31:54;2.50;99.90
35920;DHT22;36160;53.370;-6.196;2023-03-11T00:34:19;2.50;99.90
35920;DHT22;36160;53.370;-6.196;2023-03-11T00:36:45;2.40;99.90
35920;DHT22;36160;53.370;-6.196;2023-03-11T00:39:10;2.50;99.90
35920;DHT22;36160;53.370;-6.196;2023-03-11T00:41:36;2.50;99.90
35920;DHT22;36160;53.370;-6.196;2023-03-11T00:44:02;2.50;99.90
35920;DHT22;36160;53.370;-6.196;2023-03-11T00:46:27;2.50;99.90
35920;DHT22;36160;53.370;-6.196;2023-03-11T00:48:55;2.60;99.90
35920;DHT22;36160;53.370;-6.196;2023-03-11T00:51:21;2.50;99.90
35920;DHT22;36160;53.370;-6.196;2023-03-11T00:53:47;2.60;99.90
35920;DHT22;36160;53.370;-6.196;2023-03-11T00:56:14;2.60;99.90
35920;DHT22;36160;53.370;-6.196;2023-03-11T00:58:42;2.60;99.90
35920;DHT22;36160;53.370;-6.196;2023-03-11T01:01:13;2.60;99.90
35920;DHT22;36160;53.370;-6.196;2023-03-11T01:03:39;2.60;99.90
35920;DHT22;36160;53.370;-6.196;2023-03-11T01:06:06;2.70;99.90
35920;DHT22;36160;53.370;-6.196;2023-03-11T01:08:32;2.70;99.90
35920;DHT22;36160;53.370;-6.196;2023-03-11T01:10:58;2.70;99.90
35920;DHT22;36160;53.370;-6.196;2023-03-11T01:13:25;2.80;99.90
35920;DHT22;36160;53.370;-6.196;2023-03-11T01:15:51;2.70;99.90
35920;DHT22;36160;53.370;-6.196;2023-03-11T01:18:18;2.80;99.90
35920;DHT22;36160;53.370;-6.196;2023-03-11T01:20:45;2.90;99.90
35920;DHT22;36160;53.370;-6.196;2023-03-11T01:23:12;3.00;99.90
35920;DHT22;36160;53.370;-6.196;2023-03-11T01:25:38;3.20;99.90
35920;DHT22;36160;53.370;-6.196;2023-03-11T01:28:05;3.30;99.90
35920;DHT22;36160;53.370;-6.196;2023-03-11T01:30:33;3.40;99.90
35920;DHT22;36160;53.370;-6.196;2023-03-11T01:33:00;3.50;99.90
35920;DHT22;36160;53.370;-6.196;2023-03-11T01:35:27;3.70;99.90
35920;DHT22;36160;53.370;-6.196;2023-03-11T01:37:53;3.70;99.90
35920;DHT22;36160;53.370;-6.196;2023-03-11T01:40:29;3.80;99.90
35920;DHT22;36160;53.370;-6.196;2023-03-11T01:42:55;3.80;99.90
35920;DHT22;36160;53.370;-6.196;2023-03-11T01:48:07;3.90;99.90
35920;DHT22;36160;53.370;-6.196;2023-03-11T01:50:43;4.00;99.90
35920;DHT22;36160;53.370;-6.196;2023-03-11T01:53:10;4.00;99.90
35920;DHT22;36160;53.370;-6.196;2023-03-11T01:55:37;4.00;99.90
35920;DHT22;36160;53.370;-6.196;2023-03-11T01:58:06;4.10;99.90
35920;DHT22;36160;53.370;-6.196;2023-03-11T02:00:34;4.10;99.90
35920;DHT22;36160;53.370;-6.196;2023-03-11T02:03:05;4.20;99.90
35920;DHT22;36160;53.370;-6.196;2023-03-11T02:05:31;4.10;99.90
35920;DHT22;36160;53.370;-6.196;2023-03-11T02:07:58;4.20;99.90
35920;DHT22;36160;53.370;-6.196;2023-03-11T02:10:24;4.20;99.90
35920;DHT22;36160;53.370;-6.196;2023-03-11T02:12:51;4.30;99.90
35920;DHT22;36160;53.370;-6.196;2023-03-11T02:15:17;4.30;99.90
35920;DHT22;36160;53.370;-6.196;2023-03-11T02:17:43;4.40;99.90
35920;DHT22;36160;53.370;-6.196;2023-03-11T02:22:47;4.40;99.90
35920;DHT22;36160;53.370;-6.196;2023-03-11T02:25:53;4.40;99.90
35920;DHT22;36160;53.370;-6.196;2023-03-11T02:28:21;4.40;99.90
35920;DHT22;36160;53.370;-6.196;2023-03-11T02:30:47;4.40;99.90
35920;DHT22;36160;53.370;-6.196;2023-03-11T02:33:14;4.40;99.90
35920;DHT22;36160;53.370;-6.196;2023-03-11T02:35:41;4.30;99.90
35920;DHT22;36160;53.370;-6.196;2023-03-11T02:38:06;4.20;99.90
35920;DHT22;36160;53.370;-6.196;2023-03-11T02:40:51;4.20;99.90
35920;DHT22;36160;53.370;-6.196;2023-03-11T02:43:21;4.20;99.90
35920;DHT22;36160;53.370;-6.196;2023-03-11T02:45:48;4.10;99.90
35920;DHT22;36160;53.370;-6.196;2023-03-11T02:48:14;4.00;99.90
35920;DHT22;36160;53.370;-6.196;2023-03-11T02:50:41;4.00;99.90
35920;DHT22;36160;53.370;-6.196;2023-03-11T02:53:08;3.90;99.90
35920;DHT22;36160;53.370;-6.196;2023-03-11T02:55:34;3.90;99.90
35920;DHT22;36160;53.370;-6.196;2023-03-11T02:58:00;3.80;99.90
35920;DHT22;36160;53.370;-6.196;2023-03-11T03:00:26;3.90;99.90
35920;DHT22;36160;53.370;-6.196;2023-03-11T03:02:52;3.90;99.90
35920;DHT22;36160;53.370;-6.196;2023-03-11T03:05:19;3.80;99.90
35920;DHT22;36160;53.370;-6.196;2023-03-11T03:07:46;3.80;99.90
35920;DHT22;36160;53.370;-6.196;2023-03-11T03:10:13;3.80;99.90
35920;DHT22;36160;53.370;-6.196;2023-03-11T03:12:38;3.90;99.90
35920;DHT22;36160;53.370;-6.196;2023-03-11T03:15:05;3.80;99.90
35920;DHT22;36160;53.370;-6.196;2023-03-11T03:17:30;3.90;99.90
35920;DHT22;36160;53.370;-6.196;2023-03-11T03:19:56;3.80;99.90
35920;DHT22;36160;53.370;-6.196;2023-03-11T03:22:22;3.80;99.90
35920;DHT22;36160;53.370;-6.196;2023-03-11T03:24:52;3.80;99.90
35920;DHT22;36160;53.370;-6.196;2023-03-11T03:27:18;3.80;99.90
35920;DHT22;36160;53.370;-6.196;2023-03-11T03:29:43;3.70;99.90
35920;DHT22;36160;53.370;-6.196;2023-03-11T03:32:09;3.80;99.90
35920;DHT22;36160;53.370;-6.196;2023-03-11T03:34:35;3.70;99.90
35920;DHT22;36160;53.370;-6.196;2023-03-11T03:37:01;3.90;99.90
35920;DHT22;36160;53.370;-6.196;2023-03-11T03:39:26;4.00;99.90
35920;DHT22;36160;53.370;-6.196;2023-03-11T03:41:52;3.90;99.90
35920;DHT22;36160;53.370;-6.196;2023-03-11T03:44:18;4.00;99.90
35920;DHT22;36160;53.370;-6.196;2023-03-11T03:46:43;4.10;99.90
35920;DHT22;36160;53.370;-6.196;2023-03-11T03:49:09;4.10;99.90
35920;DHT22;36160;53.370;-6.196;2023-03-11T03:51:35;4.10;99.90
35920;DHT22;36160;53.370;-6.196;2023-03-11T03:54:00;4.10;99.90
35920;DHT22;36160;53.370;-6.196;2023-03-11T03:56:26;4.10;99.90
35920;DHT22;36160;53.370;-6.196;2023-03-11T03:58:52;4.20;99.90
35920;DHT22;36160;53.370;-6.196;2023-03-11T04:01:18;4.20;99.90
35920;DHT22;36160;53.370;-6.196;2023-03-11T04:03:44;4.20;99.90
35920;DHT22;36160;53.370;-6.196;2023-03-11T04:06:21;4.30;99.90
35920;DHT22;36160;53.370;-6.196;2023-03-11T04:08:47;4.40;99.90
35920;DHT22;36160;53.370;-6.196;2023-03-11T04:11:14;4.40;99.90
35920;DHT22;36160;53.370;-6.196;2023-03-11T04:13:40;4.50;93.90
35920;DHT22;36160;53.370;-6.196;2023-03-11T04:16:12;4.50;90.40
35920;DHT22;36160;53.370;-6.196;2023-03-11T04:18:40;4.50;82.20
35920;DHT22;36160;53.370;-6.196;2023-03-11T04:21:06;4.40;80.10
35920;DHT22;36160;53.370;-6.196;2023-03-11T04:23:32;4.40;87.40
35920;DHT22;36160;53.370;-6.196;2023-03-11T04:25:59;4.50;99.90
35920;DHT22;36160;53.370;-6.196;2023-03-11T04:28:24;4.50;99.90
35920;DHT22;36160;53.370;-6.196;2023-03-11T04:30:50;4.40;99.90
35920;DHT22;36160;53.370;-6.196;2023-03-11T04:33:16;4.40;99.90
35920;DHT22;36160;53.370;-6.196;2023-03-11T04:35:42;4.40;99.90
35920;DHT22;36160;53.370;-6.196;2023-03-11T04:38:07;4.40;99.90
35920;DHT22;36160;53.370;-6.196;2023-03-11T04:40:33;4.40;99.90
35920;DHT22;36160;53.370;-6.196;2023-03-11T04:42:59;4.30;99.90
35920;DHT22;36160;53.370;-6.196;2023-03-11T04:45:24;4.40;99.90
35920;DHT22;36160;53.370;-6.196;2023-03-11T04:47:50;4.30;99.90
35920;DHT22;36160;53.370;-6.196;2023-03-11T04:50:17;4.30;99.90
35920;DHT22;36160;53.370;-6.196;2023-03-11T04:52:43;4.20;99.90
35920;DHT22;36160;53.370;-6.196;2023-03-11T04:55:10;4.10;99.90
35920;DHT22;36160;53.370;-6.196;2023-03-11T04:57:36;4.00;99.90
35920;DHT22;36160;53.370;-6.196;2023-03-11T05:00:03;3.90;99.90
35920;DHT22;36160;53.370;-6.196;2023-03-11T05:02:33;3.90;99.90
35920;DHT22;36160;53.370;-6.196;2023-03-11T05:04:59;3.90;99.90
35920;DHT22;36160;53.370;-6.196;2023-03-11T05:07:25;3.80;99.90
35920;DHT22;36160;53.370;-6.196;2023-03-11T05:09:50;3.80;99.90
35920;DHT22;36160;53.370;-6.196;2023-03-11T05:12:16;3.70;99.90
35920;DHT22;36160;53.370;-6.196;2023-03-11T05:14:42;3.70;99.90
35920;DHT22;36160;53.370;-6.196;2023-03-11T05:17:07;3.70;99.90
35920;DHT22;36160;53.370;-6.196;2023-03-11T05:19:36;3.70;99.90
35920;DHT22;36160;53.370;-6.196;2023-03-11T05:22:03;3.70;99.90
35920;DHT22;36160;53.370;-6.196;2023-03-11T05:24:29;3.70;99.90
35920;DHT22;36160;53.370;-6.196;2023-03-11T05:26:56;3.70;99.90
35920;DHT22;36160;53.370;-6.196;2023-03-11T05:29:22;3.70;99.90
35920;DHT22;36160;53.370;-6.196;2023-03-11T05:31:48;3.70;99.90
35920;DHT22;36160;53.370;-6.196;2023-03-11T05:34:15;3.60;99.90
35920;DHT22;36160;53.370;-6.196;2023-03-11T05:36:41;3.70;99.90
35920;DHT22;36160;53.370;-6.196;2023-03-11T05:39:07;3.80;99.90
35920;DHT22;36160;53.370;-6.196;2023-03-11T05:41:33;3.80;99.90
35920;DHT22;36160;53.370;-6.196;2023-03-11T05:43:58;3.80;99.90
35920;DHT22;36160;53.370;-6.196;2023-03-11T05:46:25;3.70;99.90
35920;DHT22;36160;53.370;-6.196;2023-03-11T05:48:51;3.70;99.90
35920;DHT22;36160;53.370;-6.196;2023-03-11T05:51:16;3.80;99.90
35920;DHT22;36160;53.370;-6.196;2023-03-11T05:53:44;3.80;99.90
35920;DHT22;36160;53.370;-6.196;2023-03-11T05:56:14;3.80;99.90
35920;DHT22;36160;53.370;-6.196;2023-03-11T05:58:40;3.70;99.90
35920;DHT22;36160;53.370;-6.196;2023-03-11T06:01:09;3.80;99.90
35920;DHT22;36160;53.370;-6.196;2023-03-11T06:03:36;3.70;99.90
35920;DHT22;36160;53.370;-6.196;2023-03-11T06:06:04;3.70;99.90
35920;DHT22;36160;53.370;-6.196;2023-03-11T06:08:30;3.70;99.90
35920;DHT22;36160;53.370;-6.196;2023-03-11T06:11:07;3.80;99.90
35920;DHT22;36160;53.370;-6.196;2023-03-11T06:13:34;3.80;99.90
35920;DHT22;36160;53.370;-6.196;2023-03-11T06:15:59;3.80;99.90
35920;DHT22;36160;53.370;-6.196;2023-03-11T06:18:25;3.90;99.90
35920;DHT22;36160;53.370;-6.196;2023-03-11T06:20:52;3.80;99.90
35920;DHT22;36160;53.370;-6.196;2023-03-11T06:23:18;3.80;99.90
35920;DHT22;36160;53.370;-6.196;2023-03-11T06:25:44;3.80;99.90
35920;DHT22;36160;53.370;-6.196;2023-03-11T06:28:19;3.80;99.90
35920;DHT22;36160;53.370;-6.196;2023-03-11T06:30:44;3.80;99.90
35920;DHT22;36160;53.370;-6.196;2023-03-11T06:33:10;3.90;99.90
35920;DHT22;36160;53.370;-6.196;2023-03-11T06:35:36;3.90;99.90
35920;DHT22;36160;53.370;-6.196;2023-03-11T06:38:01;3.90;99.90
35920;DHT22;36160;53.370;-6.196;2023-03-11T06:40:27;3.90;99.90
35920;DHT22;36160;53.370;-6.196;2023-03-11T06:42:53;3.90;99.90
35920;DHT22;36160;53.370;-6.196;2023-03-11T06:45:18;3.90;99.90
35920;DHT22;36160;53.370;-6.196;2023-03-11T06:47:44;3.90;99.90
35920;DHT22;36160;53.370;-6.196;2023-03-11T06:50:10;3.90;99.90
35920;DHT22;36160;53.370;-6.196;2023-03-11T06:52:36;3.90;99.90
35920;DHT22;36160;53.370;-6.196;2023-03-11T06:55:02;4.00;99.90
35920;DHT22;36160;53.370;-6.196;2023-03-11T06:57:28;4.00;99.90
35920;DHT22;36160;53.370;-6.196;2023-03-11T06:59:55;4.10;99.90
35920;DHT22;36160;53.370;-6.196;2023-03-11T07:02:21;4.00;99.90
35920;DHT22;36160;53.370;-6.196;2023-03-11T07:04:49;4.10;99.90
35920;DHT22;36160;53.370;-6.196;2023-03-11T07:07:15;4.10;99.90
35920;DHT22;36160;53.370;-6.196;2023-03-11T07:09:41;4.10;99.90
35920;DHT22;36160;53.370;-6.196;2023-03-11T07:12:08;4.10;99.90
35920;DHT22;36160;53.370;-6.196;2023-03-11T07:14:33;4.10;99.90
35920;DHT22;36160;53.370;-6.196;2023-03-11T07:16:59;4.10;99.90
35920;DHT22;36160;53.370;-6.196;2023-03-11T07:19:25;4.10;99.90
35920;DHT22;36160;53.370;-6.196;2023-03-11T07:21:51;4.20;99.90
35920;DHT22;36160;53.370;-6.196;2023-03-11T07:24:16;4.20;99.90
35920;DHT22;36160;53.370;-6.196;2023-03-11T07:26:42;4.30;99.90
35920;DHT22;36160;53.370;-6.196;2023-03-11T07:29:08;4.30;99.90
35920;DHT22;36160;53.370;-6.196;2023-03-11T07:31:35;4.30;99.90
35920;DHT22;36160;53.370;-6.196;2023-03-11T07:34:04;4.30;99.90
35920;DHT22;36160;53.370;-6.196;2023-03-11T07:36:31;4.40;99.90
35920;DHT22;36160;53.370;-6.196;2023-03-11T07:38:59;4.40;99.90
35920;DHT22;36160;53.370;-6.196;2023-03-11T07:41:28;4.40;99.90
35920;DHT22;36160;53.370;-6.196;2023-03-11T07:43:56;4.50;99.90
35920;DHT22;36160;53.370;-6.196;2023-03-11T07:46:23;4.50;99.90
35920;DHT22;36160;53.370;-6.196;2023-03-11T07:48:50;4.50;99.90
35920;DHT22;36160;53.370;-6.196;2023-03-11T07:51:21;4.50;99.90
35920;DHT22;36160;53.370;-6.196;2023-03-11T07:53:47;4.50;99.90
35920;DHT22;36160;53.370;-6.196;2023-03-11T07:56:15;4.50;99.90
35920;DHT22;36160;53.370;-6.196;2023-03-11T07:58:41;4.60;99.90
35920;DHT22;36160;53.370;-6.196;2023-03-11T08:01:09;4.60;99.90
35920;DHT22;36160;53.370;-6.196;2023-03-11T08:03:36;4.70;99.90
35920;DHT22;36160;53.370;-6.196;2023-03-11T08:06:08;4.60;99.90
35920;DHT22;36160;53.370;-6.196;2023-03-11T08:08:35;4.70;99.90
35920;DHT22;36160;53.370;-6.196;2023-03-11T08:11:02;4.70;99.90
35920;DHT22;36160;53.370;-6.196;2023-03-11T08:13:28;4.70;99.90
35920;DHT22;36160;53.370;-6.196;2023-03-11T08:15:54;4.80;99.90
35920;DHT22;36160;53.370;-6.196;2023-03-11T08:18:19;4.90;99.90
35920;DHT22;36160;53.370;-6.196;2023-03-11T08:20:45;5.00;99.90
35920;DHT22;36160;53.370;-6.196;2023-03-11T08:23:11;5.00;99.90
35920;DHT22;36160;53.370;-6.196;2023-03-11T08:25:40;5.00;99.90
35920;DHT22;36160;53.370;-6.196;2023-03-11T08:28:06;5.00;99.90
35920;DHT22;36160;53.370;-6.196;2023-03-11T08:30:34;5.00;99.90
35920;DHT22;36160;53.370;-6.196;2023-03-11T08:32:59;4.90;99.90
35920;DHT22;36160;53.370;-6.196;2023-03-11T08:35:25;5.00;99.90
35920;DHT22;36160;53.370;-6.196;2023-03-11T08:37:51;5.00;99.90
35920;DHT22;36160;53.370;-6.196;2023-03-11T08:40:17;5.00;99.90
35920;DHT22;36160;53.370;-6.196;2023-03-11T08:42:43;5.00;99.90
35920;DHT22;36160;53.370;-6.196;2023-03-11T08:45:09;5.00;99.90
35920;DHT22;36160;53.370;-6.196;2023-03-11T08:47:36;5.00;99.90
35920;DHT22;36160;53.370;-6.196;2023-03-11T08:50:05;5.10;99.90
35920;DHT22;36160;53.370;-6.196;2023-03-11T08:52:31;5.20;99.90
35920;DHT22;36160;53.370;-6.196;2023-03-11T08:54:56;5.20;99.90
35920;DHT22;36160;53.370;-6.196;2023-03-11T08:57:22;5.20;99.90
35920;DHT22;36160;53.370;-6.196;2023-03-11T08:59:48;5.10;99.90
35920;DHT22;36160;53.370;-6.196;2023-03-11T09:02:13;5.20;99.90
35920;DHT22;36160;53.370;-6.196;2023-03-11T09:04:39;5.20;99.90
35920;DHT22;36160;53.370;-6.196;2023-03-11T09:07:05;5.30;99.90
35920;DHT22;36160;53.370;-6.196;2023-03-11T09:09:31;5.30;99.90
35920;DHT22;36160;53.370;-6.196;2023-03-11T09:11:57;5.30;99.90
35920;DHT22;36160;53.370;-6.196;2023-03-11T09:14:22;5.30;99.90
35920;DHT22;36160;53.370;-6.196;2023-03-11T09:16:48;5.30;99.90
35920;DHT22;36160;53.370;-6.196;2023-03-11T09:19:13;5.30;99.90
35920;DHT22;36160;53.370;-6.196;2023-03-11T09:21:39;5.40;99.90
35920;DHT22;36160;53.370;-6.196;2023-03-11T09:24:06;5.50;99.90
35920;DHT22;36160;53.370;-6.196;2023-03-11T09:26:31;5.50;99.90
35920;DHT22;36160;53.370;-6.196;2023-03-11T09:28:57;5.50;99.90
35920;DHT22;36160;53.370;-6.196;2023-03-11T09:31:23;5.50;99.90
35920;DHT22;36160;53.370;-6.196;2023-03-11T09:33:48;5.60;99.90
35920;DHT22;36160;53.370;-6.196;2023-03-11T09:36:18;5.50;99.90
35920;DHT22;36160;53.370;-6.196;2023-03-11T09:38:44;5.60;99.90
35920;DHT22;36160;53.370;-6.196;2023-03-11T09:54:40;5.90;99.90
35920;DHT22;36160;53.370;-6.196;2023-03-11T09:57:13;5.90;99.90
35920;DHT22;36160;53.370;-6.196;2023-03-11T09:59:41;5.80;99.90
35920;DHT22;36160;53.370;-6.196;2023-03-11T10:02:15;5.90;99.90
35920;DHT22;36160;53.370;-6.196;2023-03-11T10:04:53;5.80;99.90
35920;DHT22;36160;53.370;-6.196;2023-03-11T10:07:26;5.90;99.90
35920;DHT22;36160;53.370;-6.196;2023-03-11T10:09:57;5.80;99.90
35920;DHT22;36160;53.370;-6.196;2023-03-11T10:15:15;5.70;99.90
35920;DHT22;36160;53.370;-6.196;2023-03-11T10:18:04;5.80;99.90
35920;DHT22;36160;53.370;-6.196;2023-03-11T10:28:50;5.80;99.90
35920;DHT22;36160;53.370;-6.196;2023-03-11T10:31:27;5.80;99.90
35920;DHT22;36160;53.370;-6.196;2023-03-11T10:34:34;5.80;99.90
35920;DHT22;36160;53.370;-6.196;2023-03-11T10:37:02;5.80;99.90
35920;DHT22;36160;53.370;-6.196;2023-03-11T10:39:31;5.80;99.90
35920;DHT22;36160;53.370;-6.196;2023-03-11T10:42:05;5.90;99.90
35920;DHT22;36160;53.370;-6.196;2023-03-11T10:44:37;5.80;99.90
35920;DHT22;36160;53.370;-6.196;2023-03-11T10:47:04;5.70;99.90
35920;DHT22;36160;53.370;-6.196;2023-03-11T10:49:31;5.70;99.90
35920;DHT22;36160;53.370;-6.196;2023-03-11T10:51:57;5.70;99.90
35920;DHT22;36160;53.370;-6.196;2023-03-11T10:54:34;5.60;99.90
35920;DHT22;36160;53.370;-6.196;2023-03-11T10:57:04;5.70;99.90
35920;DHT22;36160;53.370;-6.196;2023-03-11T11:02:00;5.60;99.90
35920;DHT22;36160;53.370;-6.196;2023-03-11T11:04:38;5.60;99.90
35920;DHT22;36160;53.370;-6.196;2023-03-11T11:13:14;5.40;99.90
35920;DHT22;36160;53.370;-6.196;2023-03-11T11:15:58;5.40;99.90
35920;DHT22;36160;53.370;-6.196;2023-03-11T11:18:31;5.40;99.90
35920;DHT22;36160;53.370;-6.196;2023-03-11T11:21:07;5.30;99.90
35920;DHT22;36160;53.370;-6.196;2023-03-11T11:26:17;5.30;99.90
35920;DHT22;36160;53.370;-6.196;2023-03-11T11:28:43;5.20;99.90
35920;DHT22;36160;53.370;-6.196;2023-03-11T11:31:22;5.30;99.90
35920;DHT22;36160;53.370;-6.196;2023-03-11T11:33:53;5.20;99.90
35920;DHT22;36160;53.370;-6.196;2023-03-11T11:36:21;5.20;99.90
35920;DHT22;36160;53.370;-6.196;2023-03-11T11:38:54;5.20;99.90
35920;DHT22;36160;53.370;-6.196;2023-03-11T11:41:22;5.20;99.90
35920;DHT22;36160;53.370;-6.196;2023-03-11T11:46:40;5.10;99.90
35920;DHT22;36160;53.370;-6.196;2023-03-11T11:49:15;5.10;99.90
35920;DHT22;36160;53.370;-6.196;2023-03-11T11:52:05;5.10;99.90
35920;DHT22;36160;53.370;-6.196;2023-03-11T11:57:14;5.10;99.90
35920;DHT22;36160;53.370;-6.196;2023-03-11T11:59:41;5.00;99.90
35920;DHT22;36160;53.370;-6.196;2023-03-11T12:10:27;4.90;99.90
35920;DHT22;36160;53.370;-6.196;2023-03-11T12:15:54;4.90;99.90
35920;DHT22;36160;53.370;-6.196;2023-03-11T12:18:32;4.90;99.90
35920;DHT22;36160;53.370;-6.196;2023-03-11T12:26:41;4.90;99.90
35920;DHT22;36160;53.370;-6.196;2023-03-11T12:29:23;4.90;99.90
35920;DHT22;36160;53.370;-6.196;2023-03-11T12:31:51;4.90;99.90
35920;DHT22;36160;53.370;-6.196;2023-03-11T12:34:19;4.90;99.90
35920;DHT22;36160;53.370;-6.196;2023-03-11T12:36:47;4.90;99.90
35920;DHT22;36160;53.370;-6.196;2023-03-11T12:39:26;4.90;99.90
35920;DHT22;36160;53.370;-6.196;2023-03-11T12:42:21;5.00;99.90
35920;DHT22;36160;53.370;-6.196;2023-03-11T12:44:49;5.00;99.90
35920;DHT22;36160;53.370;-6.196;2023-03-11T12:47:18;5.10;99.90
35920;DHT22;36160;53.370;-6.196;2023-03-11T12:49:44;5.10;99.90
35920;DHT22;36160;53.370;-6.196;2023-03-11T13:08:55;5.60;99.90
35920;DHT22;36160;53.370;-6.196;2023-03-11T13:16:43;5.60;99.90
35920;DHT22;36160;53.370;-6.196;2023-03-11T13:21:52;5.60;99.90
35920;DHT22;36160;53.370;-6.196;2023-03-11T13:32:56;5.60;99.90
35920;DHT22;36160;53.370;-6.196;2023-03-11T13:38:33;5.60;99.90
35920;DHT22;36160;53.370;-6.196;2023-03-11T13:41:17;5.60;99.90
35920;DHT22;36160;53.370;-6.196;2023-03-11T13:43:49;5.60;99.90
35920;DHT22;36160;53.370;-6.196;2023-03-11T13:46:32;5.60;99.90
35920;DHT22;36160;53.370;-6.196;2023-03-11T13:52:23;5.60;99.90
35920;DHT22;36160;53.370;-6.196;2023-03-11T13:57:55;5.60;99.90
35920;DHT22;36160;53.370;-6.196;2023-03-11T14:00:28;5.70;99.90
35920;DHT22;36160;53.370;-6.196;2023-03-11T14:03:12;5.80;99.90
35920;DHT22;36160;53.370;-6.196;2023-03-11T14:05:43;5.80;99.90
35920;DHT22;36160;53.370;-6.196;2023-03-11T14:08:27;6.00;99.90
35920;DHT22;36160;53.370;-6.196;2023-03-11T14:13:38;6.00;99.90
35920;DHT22;36160;53.370;-6.196;2023-03-11T14:16:19;6.00;99.90
35920;DHT22;36160;53.370;-6.196;2023-03-11T14:19:13;6.00;99.90
35920;DHT22;36160;53.370;-6.196;2023-03-11T14:21:44;6.00;99.90
35920;DHT22;36160;53.370;-6.196;2023-03-11T14:24:16;6.10;99.90
35920;DHT22;36160;53.370;-6.196;2023-03-11T14:26:42;6.00;99.90
35920;DHT22;36160;53.370;-6.196;2023-03-11T14:29:16;6.10;99.90
35920;DHT22;36160;53.370;-6.196;2023-03-11T14:31:44;6.00;99.90
35920;DHT22;36160;53.370;-6.196;2023-03-11T14:34:16;6.10;99.90
35920;DHT22;36160;53.370;-6.196;2023-03-11T14:36:42;6.10;99.90
35920;DHT22;36160;53.370;-6.196;2023-03-11T14:39:24;6.10;99.90
35920;DHT22;36160;53.370;-6.196;2023-03-11T14:41:54;6.20;99.90
35920;DHT22;36160;53.370;-6.196;2023-03-11T14:44:22;6.20;99.90
35920;DHT22;36160;53.370;-6.196;2023-03-11T14:46:50;6.20;99.90
35920;DHT22;36160;53.370;-6.196;2023-03-11T14:49:20;6.20;99.90
35920;DHT22;36160;53.370;-6.196;2023-03-11T14:51:50;6.10;99.90
35920;DHT22;36160;53.370;-6.196;2023-03-11T14:54:21;6.20;99.90
35920;DHT22;36160;53.370;-6.196;2023-03-11T14:57:02;6.20;99.90
35920;DHT22;36160;53.370;-6.196;2023-03-11T14:59:30;6.10;99.90
35920;DHT22;36160;53.370;-6.196;2023-03-11T15:04:47;6.20;99.90
35920;DHT22;36160;53.370;-6.196;2023-03-11T15:07:13;6.20;99.90
35920;DHT22;36160;53.370;-6.196;2023-03-11T15:09:41;6.20;99.90
35920;DHT22;36160;53.370;-6.196;2023-03-11T15:12:27;6.10;99.90
35920;DHT22;36160;53.370;-6.196;2023-03-11T15:14:52;6.20;99.90
35920;DHT22;36160;53.370;-6.196;2023-03-11T15:17:24;6.20;99.90
35920;DHT22;36160;53.370;-6.196;2023-03-11T15:19:55;6.30;99.90
35920;DHT22;36160;53.370;-6.196;2023-03-11T15:25:02;6.30;99.90
35920;DHT22;36160;53.370;-6.196;2023-03-11T15:27:35;6.30;99.90
35920;DHT22;36160;53.370;-6.196;2023-03-11T15:30:04;6.30;99.90
35920;DHT22;36160;53.370;-6.196;2023-03-11T15:32:43;6.30;99.90
35920;DHT22;36160;53.370;-6.196;2023-03-11T15:37:37;6.20;99.90
35920;DHT22;36160;53.370;-6.196;2023-03-11T15:42:38;6.30;99.90
35920;DHT22;36160;53.370;-6.196;2023-03-11T15:45:18;6.30;99.90
35920;DHT22;36160;53.370;-6.196;2023-03-11T15:47:45;6.40;99.90
35920;DHT22;36160;53.370;-6.196;2023-03-11T15:50:20;6.40;99.90
35920;DHT22;36160;53.370;-6.196;2023-03-11T15:52:47;6.40;99.90
35920;DHT22;36160;53.370;-6.196;2023-03-11T15:55:13;6.30;99.90
35920;DHT22;36160;53.370;-6.196;2023-03-11T15:57:39;6.40;99.90
35920;DHT22;36160;53.370;-6.196;2023-03-11T16:00:14;6.30;99.90
35920;DHT22;36160;53.370;-6.196;2023-03-11T16:02:40;6.40;99.90
35920;DHT22;36160;53.370;-6.196;2023-03-11T16:05:20;6.40;99.90
35920;DHT22;36160;53.370;-6.196;2023-03-11T16:07:47;6.40;99.90
35920;DHT22;36160;53.370;-6.196;2023-03-11T16:10:14;6.50;99.90
35920;DHT22;36160;53.370;-6.196;2023-03-11T16:12:41;6.50;99.90
35920;DHT22;36160;53.370;-6.196;2023-03-11T16:15:28;6.50;99.90
35920;DHT22;36160;53.370;-6.196;2023-03-11T16:17:57;6.40;99.90
35920;DHT22;36160;53.370;-6.196;2023-03-11T16:20:25;6.50;99.90
35920;DHT22;36160;53.370;-6.196;2023-03-11T16:22:53;6.40;99.90
35920;DHT22;36160;53.370;-6.196;2023-03-11T16:25:45;6.50;99.90
35920;DHT22;36160;53.370;-6.196;2023-03-11T16:28:15;6.40;99.90
35920;DHT22;36160;53.370;-6.196;2023-03-11T16:30:41;6.40;99.90
35920;DHT22;36160;53.370;-6.196;2023-03-11T16:33:07;6.40;99.90
35920;DHT22;36160;53.370;-6.196;2023-03-11T16:35:33;6.40;99.90
35920;DHT22;36160;53.370;-6.196;2023-03-11T16:37:59;6.50;99.90
35920;DHT22;36160;53.370;-6.196;2023-03-11T16:40:26;6.50;99.90
35920;DHT22;36160;53.370;-6.196;2023-03-11T16:43:05;6.50;99.90
35920;DHT22;36160;53.370;-6.196;2023-03-11T16:45:31;6.60;99.90
35920;DHT22;36160;53.370;-6.196;2023-03-11T16:47:57;6.50;99.90
35920;DHT22;36160;53.370;-6.196;2023-03-11T16:50:23;6.50;99.90
35920;DHT22;36160;53.370;-6.196;2023-03-11T16:52:50;6.60;99.90
35920;DHT22;36160;53.370;-6.196;2023-03-11T16:55:16;6.60;99.90
35920;DHT22;36160;53.370;-6.196;2023-03-11T16:57:41;6.60;99.90
35920;DHT22;36160;53.370;-6.196;2023-03-11T17:00:08;6.70;99.90
35920;DHT22;36160;53.370;-6.196;2023-03-11T17:02:35;6.70;99.90
35920;DHT22;36160;53.370;-6.196;2023-03-11T17:05:02;6.80;99.90
35920;DHT22;36160;53.370;-6.196;2023-03-11T17:07:29;6.70;99.90
35920;DHT22;36160;53.370;-6.196;2023-03-11T17:09:54;6.70;99.90
35920;DHT22;36160;53.370;-6.196;2023-03-11T17:12:21;6.80;99.90
35920;DHT22;36160;53.370;-6.196;2023-03-11T17:14:47;6.80;99.90
35920;DHT22;36160;53.370;-6.196;2023-03-11T17:17:13;6.90;99.90
35920;DHT22;36160;53.370;-6.196;2023-03-11T17:19:40;6.90;99.90
35920;DHT22;36160;53.370;-6.196;2023-03-11T17:22:05;6.80;99.90
35920;DHT22;36160;53.370;-6.196;2023-03-11T17:24:31;6.80;99.90
35920;DHT22;36160;53.370;-6.196;2023-03-11T17:26:57;6.90;99.90
35920;DHT22;36160;53.370;-6.196;2023-03-11T17:29:23;6.90;99.90
35920;DHT22;36160;53.370;-6.196;2023-03-11T17:31:48;6.90;99.90
35920;DHT22;36160;53.370;-6.196;2023-03-11T17:34:15;7.00;99.90
35920;DHT22;36160;53.370;-6.196;2023-03-11T17:36:40;7.00;99.90